Decoded Metar for LFPT (PONTOISE in FRANCE) (IATA:POX) | Meteo·Mobile Aviation Weather
aviador You're here:

LFPT Decoded Metar

PONTOISE in FRANCE
Report Time2019-03-21 15:00:00
UTC Time2019-03-21 15:32:33
Flight Rules vfr VFR
Wind030° at 06 kt
W.Decomp.*RWY 05: 5.7 kt HW 2 kt LCW
RWY 12: 0.1 kt HW 6 kt LCW
W.Rank030° ranks 18
Current wind is below 030° avg. (6.6)
Visibility9999 m
Phenomena:N/A
Clouds:Few 037 Hf
Expected CloudBase > 2,800 ft AGL from Temp-Dew spread
CeilingNone
Temp15°C (ISA +1)
Dew Point08°C (63% RH)
AAT12.4°C
QNH1031 hPa
Density Alt-56 ft
Elevation325 ft
Report Wrong Elevation
Raw Report
METAR LFPT 211500Z AUTO 03006KT 350V090 9999 FEW037 15/08 Q1031=

Extra information for LFPT:More info

Metar Taf Metar & Taf Last 4 Metars F.Rules Stats Wind Profile Meteogram Temp Stats Airport Information Weather charts Add Link Nearby VenuesMetar ALERT Operation Metar Decoded Social comments